sensor_id;sensor_type;location;lat;lon;timestamp;P1;durP1;ratioP1;P2;durP2;ratioP2
52854;SDS011;38719;51.418;7.286;2022-12-18T00:01:22;4.95;;;3.78;;
52854;SDS011;38719;51.418;7.286;2022-12-18T00:03:51;4.65;;;3.55;;
52854;SDS011;38719;51.418;7.286;2022-12-18T00:06:20;4.43;;;3.60;;
52854;SDS011;38719;51.418;7.286;2022-12-18T00:08:48;5.43;;;3.80;;
52854;SDS011;38719;51.418;7.286;2022-12-18T00:11:16;6.07;;;3.90;;
52854;SDS011;38719;51.418;7.286;2022-12-18T00:13:45;6.88;;;4.38;;
52854;SDS011;38719;51.418;7.286;2022-12-18T00:16:15;5.90;;;3.80;;
52854;SDS011;38719;51.418;7.286;2022-12-18T00:18:46;8.20;;;4.93;;
52854;SDS011;38719;51.418;7.286;2022-12-18T00:21:15;5.10;;;4.60;;
52854;SDS011;38719;51.418;7.286;2022-12-18T00:23:43;5.50;;;4.03;;
52854;SDS011;38719;51.418;7.286;2022-12-18T00:26:11;6.60;;;4.10;;
52854;SDS011;38719;51.418;7.286;2022-12-18T00:28:41;6.00;;;4.10;;
52854;SDS011;38719;51.418;7.286;2022-12-18T00:31:09;7.65;;;3.92;;
52854;SDS011;38719;51.418;7.286;2022-12-18T00:33:40;6.35;;;3.92;;
52854;SDS011;38719;51.418;7.286;2022-12-18T00:36:09;9.02;;;4.38;;
52854;SDS011;38719;51.418;7.286;2022-12-18T00:38:38;7.05;;;3.75;;
52854;SDS011;38719;51.418;7.286;2022-12-18T00:41:07;6.40;;;3.95;;
52854;SDS011;38719;51.418;7.286;2022-12-18T00:43:35;7.90;;;4.85;;
52854;SDS011;38719;51.418;7.286;2022-12-18T00:46:03;5.78;;;4.07;;
52854;SDS011;38719;51.418;7.286;2022-12-18T00:48:31;5.82;;;4.30;;
52854;SDS011;38719;51.418;7.286;2022-12-18T00:51:00;6.47;;;4.22;;
52854;SDS011;38719;51.418;7.286;2022-12-18T00:53:27;7.13;;;4.38;;
52854;SDS011;38719;51.418;7.286;2022-12-18T00:55:55;5.13;;;4.13;;
52854;SDS011;38719;51.418;7.286;2022-12-18T00:58:22;6.40;;;4.03;;
52854;SDS011;38719;51.418;7.286;2022-12-18T01:00:50;7.03;;;3.95;;
52854;SDS011;38719;51.418;7.286;2022-12-18T01:03:17;4.72;;;3.78;;
52854;SDS011;38719;51.418;7.286;2022-12-18T01:05:45;8.00;;;4.45;;
52854;SDS011;38719;51.418;7.286;2022-12-18T01:08:14;5.97;;;3.50;;
52854;SDS011;38719;51.418;7.286;2022-12-18T01:10:41;7.72;;;4.20;;
52854;SDS011;38719;51.418;7.286;2022-12-18T01:13:09;5.93;;;4.00;;
52854;SDS011;38719;51.418;7.286;2022-12-18T01:15:36;5.68;;;4.18;;
52854;SDS011;38719;51.418;7.286;2022-12-18T01:18:03;5.88;;;4.00;;
52854;SDS011;38719;51.418;7.286;2022-12-18T01:20:32;8.93;;;4.07;;
52854;SDS011;38719;51.418;7.286;2022-12-18T01:23:00;6.55;;;4.47;;
52854;SDS011;38719;51.418;7.286;2022-12-18T01:25:28;7.53;;;3.88;;
52854;SDS011;38719;51.418;7.286;2022-12-18T01:27:56;6.80;;;4.47;;
52854;SDS011;38719;51.418;7.286;2022-12-18T01:30:23;7.20;;;4.30;;
52854;SDS011;38719;51.418;7.286;2022-12-18T01:32:51;5.43;;;3.95;;
52854;SDS011;38719;51.418;7.286;2022-12-18T01:35:18;4.93;;;4.03;;
52854;SDS011;38719;51.418;7.286;2022-12-18T01:37:46;6.10;;;4.10;;
52854;SDS011;38719;51.418;7.286;2022-12-18T01:40:13;5.65;;;3.83;;
52854;SDS011;38719;51.418;7.286;2022-12-18T01:42:42;7.32;;;4.13;;
52854;SDS011;38719;51.418;7.286;2022-12-18T01:47:55;9.52;;;4.28;;
52854;SDS011;38719;51.418;7.286;2022-12-18T01:50:25;7.43;;;4.38;;
52854;SDS011;38719;51.418;7.286;2022-12-18T01:52:58;8.52;;;4.45;;
52854;SDS011;38719;51.418;7.286;2022-12-18T01:55:29;6.40;;;4.45;;
52854;SDS011;38719;51.418;7.286;2022-12-18T01:58:03;9.35;;;4.05;;
52854;SDS011;38719;51.418;7.286;2022-12-18T02:00:31;6.70;;;4.05;;
52854;SDS011;38719;51.418;7.286;2022-12-18T02:02:59;6.55;;;4.03;;
52854;SDS011;38719;51.418;7.286;2022-12-18T02:05:31;5.95;;;4.15;;
52854;SDS011;38719;51.418;7.286;2022-12-18T02:08:08;7.32;;;4.25;;
52854;SDS011;38719;51.418;7.286;2022-12-18T02:10:41;5.45;;;4.03;;
52854;SDS011;38719;51.418;7.286;2022-12-18T02:13:17;7.32;;;4.00;;
52854;SDS011;38719;51.418;7.286;2022-12-18T02:15:50;7.57;;;4.05;;
52854;SDS011;38719;51.418;7.286;2022-12-18T02:18:25;7.53;;;4.70;;
52854;SDS011;38719;51.418;7.286;2022-12-18T02:20:58;5.93;;;3.85;;
52854;SDS011;38719;51.418;7.286;2022-12-18T02:23:39;5.38;;;3.72;;
52854;SDS011;38719;51.418;7.286;2022-12-18T02:26:17;5.72;;;3.83;;
52854;SDS011;38719;51.418;7.286;2022-12-18T02:28:48;9.23;;;4.45;;
52854;SDS011;38719;51.418;7.286;2022-12-18T02:31:21;6.22;;;4.40;;
52854;SDS011;38719;51.418;7.286;2022-12-18T02:33:52;9.38;;;4.68;;
52854;SDS011;38719;51.418;7.286;2022-12-18T02:36:25;5.97;;;3.92;;
52854;SDS011;38719;51.418;7.286;2022-12-18T02:38:55;6.85;;;3.97;;
52854;SDS011;38719;51.418;7.286;2022-12-18T02:41:26;6.13;;;4.05;;
52854;SDS011;38719;51.418;7.286;2022-12-18T02:43:56;6.47;;;3.83;;
52854;SDS011;38719;51.418;7.286;2022-12-18T02:46:25;5.50;;;3.85;;
52854;SDS011;38719;51.418;7.286;2022-12-18T02:48:59;6.40;;;4.30;;
52854;SDS011;38719;51.418;7.286;2022-12-18T02:51:33;6.32;;;4.18;;
52854;SDS011;38719;51.418;7.286;2022-12-18T02:54:14;7.57;;;4.30;;
52854;SDS011;38719;51.418;7.286;2022-12-18T02:56:50;6.45;;;4.03;;
52854;SDS011;38719;51.418;7.286;2022-12-18T02:59:21;7.82;;;4.85;;
52854;SDS011;38719;51.418;7.286;2022-12-18T03:01:57;5.78;;;4.05;;
52854;SDS011;38719;51.418;7.286;2022-12-18T03:04:32;8.48;;;4.35;;
52854;SDS011;38719;51.418;7.286;2022-12-18T03:07:05;4.80;;;3.72;;
52854;SDS011;38719;51.418;7.286;2022-12-18T03:09:38;6.20;;;4.18;;
52854;SDS011;38719;51.418;7.286;2022-12-18T03:12:13;7.20;;;4.35;;
52854;SDS011;38719;51.418;7.286;2022-12-18T03:14:50;7.28;;;4.15;;
52854;SDS011;38719;51.418;7.286;2022-12-18T03:17:22;9.77;;;4.13;;
52854;SDS011;38719;51.418;7.286;2022-12-18T03:19:52;5.80;;;3.90;;
52854;SDS011;38719;51.418;7.286;2022-12-18T03:22:22;7.15;;;3.83;;
52854;SDS011;38719;51.418;7.286;2022-12-18T03:24:54;6.28;;;4.20;;
52854;SDS011;38719;51.418;7.286;2022-12-18T03:27:25;6.00;;;4.20;;
52854;SDS011;38719;51.418;7.286;2022-12-18T03:29:56;6.47;;;4.50;;
52854;SDS011;38719;51.418;7.286;2022-12-18T03:32:33;5.60;;;4.05;;
52854;SDS011;38719;51.418;7.286;2022-12-18T03:35:06;8.88;;;4.18;;
52854;SDS011;38719;51.418;7.286;2022-12-18T03:37:44;8.10;;;4.68;;
52854;SDS011;38719;51.418;7.286;2022-12-18T03:40:11;7.45;;;3.80;;
52854;SDS011;38719;51.418;7.286;2022-12-18T03:42:42;6.65;;;4.63;;
52854;SDS011;38719;51.418;7.286;2022-12-18T03:45:17;5.60;;;4.03;;
52854;SDS011;38719;51.418;7.286;2022-12-18T03:47:52;7.85;;;3.92;;
52854;SDS011;38719;51.418;7.286;2022-12-18T03:50:27;5.97;;;3.97;;
52854;SDS011;38719;51.418;7.286;2022-12-18T03:53:03;5.78;;;3.70;;
52854;SDS011;38719;51.418;7.286;2022-12-18T03:55:40;5.93;;;3.63;;
52854;SDS011;38719;51.418;7.286;2022-12-18T03:58:10;5.15;;;3.53;;
52854;SDS011;38719;51.418;7.286;2022-12-18T04:00:42;3.95;;;3.30;;
52854;SDS011;38719;51.418;7.286;2022-12-18T04:03:11;5.43;;;3.40;;
52854;SDS011;38719;51.418;7.286;2022-12-18T04:05:40;4.75;;;3.70;;
52854;SDS011;38719;51.418;7.286;2022-12-18T04:08:10;6.55;;;3.67;;
52854;SDS011;38719;51.418;7.286;2022-12-18T04:10:39;4.53;;;3.55;;
52854;SDS011;38719;51.418;7.286;2022-12-18T04:13:06;4.47;;;3.45;;
52854;SDS011;38719;51.418;7.286;2022-12-18T04:15:35;3.88;;;3.42;;
52854;SDS011;38719;51.418;7.286;2022-12-18T04:18:04;5.80;;;3.22;;
52854;SDS011;38719;51.418;7.286;2022-12-18T04:20:32;4.13;;;2.90;;
52854;SDS011;38719;51.418;7.286;2022-12-18T04:22:59;3.58;;;3.03;;
52854;SDS011;38719;51.418;7.286;2022-12-18T04:25:27;5.18;;;3.45;;
52854;SDS011;38719;51.418;7.286;2022-12-18T04:27:54;3.88;;;3.25;;
52854;SDS011;38719;51.418;7.286;2022-12-18T04:30:22;6.72;;;3.53;;
52854;SDS011;38719;51.418;7.286;2022-12-18T04:32:50;3.78;;;3.42;;
52854;SDS011;38719;51.418;7.286;2022-12-18T04:35:18;5.03;;;3.80;;
52854;SDS011;38719;51.418;7.286;2022-12-18T04:37:45;3.50;;;3.03;;
52854;SDS011;38719;51.418;7.286;2022-12-18T04:40:13;3.50;;;3.20;;
52854;SDS011;38719;51.418;7.286;2022-12-18T04:42:40;4.25;;;3.38;;
52854;SDS011;38719;51.418;7.286;2022-12-18T04:45:08;4.60;;;3.13;;
52854;SDS011;38719;51.418;7.286;2022-12-18T04:47:36;4.68;;;3.78;;
52854;SDS011;38719;51.418;7.286;2022-12-18T04:50:05;4.88;;;3.20;;
52854;SDS011;38719;51.418;7.286;2022-12-18T04:52:33;5.47;;;3.33;;
52854;SDS011;38719;51.418;7.286;2022-12-18T04:55:01;3.50;;;3.20;;
52854;SDS011;38719;51.418;7.286;2022-12-18T04:57:29;5.20;;;3.35;;
52854;SDS011;38719;51.418;7.286;2022-12-18T04:59:56;5.03;;;3.30;;
52854;SDS011;38719;51.418;7.286;2022-12-18T05:02:24;4.25;;;3.58;;
52854;SDS011;38719;51.418;7.286;2022-12-18T05:04:51;4.18;;;3.40;;
52854;SDS011;38719;51.418;7.286;2022-12-18T05:07:20;4.13;;;3.30;;
52854;SDS011;38719;51.418;7.286;2022-12-18T05:09:48;5.82;;;3.60;;
52854;SDS011;38719;51.418;7.286;2022-12-18T05:12:15;4.40;;;3.53;;
52854;SDS011;38719;51.418;7.286;2022-12-18T05:14:43;4.97;;;3.67;;
52854;SDS011;38719;51.418;7.286;2022-12-18T05:17:10;5.60;;;3.55;;
52854;SDS011;38719;51.418;7.286;2022-12-18T05:19:38;5.45;;;3.47;;
52854;SDS011;38719;51.418;7.286;2022-12-18T05:22:05;4.85;;;3.38;;
52854;SDS011;38719;51.418;7.286;2022-12-18T05:24:34;4.70;;;3.67;;
52854;SDS011;38719;51.418;7.286;2022-12-18T05:27:02;4.72;;;3.60;;
52854;SDS011;38719;51.418;7.286;2022-12-18T05:29:30;3.75;;;3.30;;
52854;SDS011;38719;51.418;7.286;2022-12-18T05:31:57;4.03;;;3.17;;
52854;SDS011;38719;51.418;7.286;2022-12-18T05:34:25;4.15;;;3.17;;
52854;SDS011;38719;51.418;7.286;2022-12-18T05:36:52;4.47;;;3.53;;
52854;SDS011;38719;51.418;7.286;2022-12-18T05:39:20;5.45;;;3.35;;
52854;SDS011;38719;51.418;7.286;2022-12-18T05:41:48;5.47;;;3.80;;
52854;SDS011;38719;51.418;7.286;2022-12-18T05:44:16;3.60;;;3.20;;
52854;SDS011;38719;51.418;7.286;2022-12-18T05:46:43;5.10;;;3.95;;
52854;SDS011;38719;51.418;7.286;2022-12-18T05:49:11;3.88;;;2.90;;
52854;SDS011;38719;51.418;7.286;2022-12-18T05:51:39;4.82;;;3.40;;
52854;SDS011;38719;51.418;7.286;2022-12-18T05:54:07;3.55;;;3.25;;
52854;SDS011;38719;51.418;7.286;2022-12-18T05:56:35;4.65;;;3.08;;
52854;SDS011;38719;51.418;7.286;2022-12-18T05:59:04;6.50;;;3.63;;
52854;SDS011;38719;51.418;7.286;2022-12-18T06:01:31;4.13;;;3.40;;
52854;SDS011;38719;51.418;7.286;2022-12-18T06:03:59;3.83;;;3.00;;
52854;SDS011;38719;51.418;7.286;2022-12-18T06:06:27;3.30;;;3.00;;
52854;SDS011;38719;51.418;7.286;2022-12-18T06:08:57;5.07;;;3.13;;
52854;SDS011;38719;51.418;7.286;2022-12-18T06:11:25;5.85;;;3.85;;
52854;SDS011;38719;51.418;7.286;2022-12-18T06:13:53;4.68;;;3.50;;
52854;SDS011;38719;51.418;7.286;2022-12-18T06:16:26;3.55;;;3.22;;
52854;SDS011;38719;51.418;7.286;2022-12-18T06:18:55;4.82;;;3.10;;
52854;SDS011;38719;51.418;7.286;2022-12-18T06:21:23;5.40;;;3.42;;
52854;SDS011;38719;51.418;7.286;2022-12-18T06:23:51;6.55;;;4.20;;
52854;SDS011;38719;51.418;7.286;2022-12-18T06:26:18;4.20;;;3.45;;
52854;SDS011;38719;51.418;7.286;2022-12-18T06:28:53;4.95;;;3.55;;
52854;SDS011;38719;51.418;7.286;2022-12-18T06:31:20;5.88;;;3.80;;
52854;SDS011;38719;51.418;7.286;2022-12-18T06:33:49;7.10;;;3.67;;
52854;SDS011;38719;51.418;7.286;2022-12-18T06:36:17;6.57;;;3.75;;
52854;SDS011;38719;51.418;7.286;2022-12-18T06:38:45;4.80;;;3.83;;
52854;SDS011;38719;51.418;7.286;2022-12-18T06:41:13;7.30;;;3.45;;
52854;SDS011;38719;51.418;7.286;2022-12-18T06:43:43;5.93;;;3.70;;
52854;SDS011;38719;51.418;7.286;2022-12-18T06:46:11;8.00;;;3.95;;
52854;SDS011;38719;51.418;7.286;2022-12-18T06:48:39;5.95;;;4.07;;
52854;SDS011;38719;51.418;7.286;2022-12-18T06:51:08;4.43;;;3.45;;
52854;SDS011;38719;51.418;7.286;2022-12-18T06:53:36;5.85;;;3.60;;
52854;SDS011;38719;51.418;7.286;2022-12-18T06:56:05;7.40;;;3.90;;
52854;SDS011;38719;51.418;7.286;2022-12-18T06:58:36;9.48;;;3.90;;
52854;SDS011;38719;51.418;7.286;2022-12-18T07:01:04;4.05;;;3.35;;
52854;SDS011;38719;51.418;7.286;2022-12-18T07:03:33;6.65;;;3.55;;
52854;SDS011;38719;51.418;7.286;2022-12-18T07:06:01;8.02;;;3.63;;
52854;SDS011;38719;51.418;7.286;2022-12-18T07:08:30;7.05;;;3.75;;
52854;SDS011;38719;51.418;7.286;2022-12-18T07:10:59;5.95;;;4.40;;
52854;SDS011;38719;51.418;7.286;2022-12-18T07:13:29;6.15;;;3.78;;
52854;SDS011;38719;51.418;7.286;2022-12-18T07:16:02;6.95;;;4.50;;
52854;SDS011;38719;51.418;7.286;2022-12-18T07:18:38;5.35;;;3.55;;
52854;SDS011;38719;51.418;7.286;2022-12-18T07:21:06;3.88;;;3.40;;
52854;SDS011;38719;51.418;7.286;2022-12-18T07:23:36;6.25;;;4.07;;
52854;SDS011;38719;51.418;7.286;2022-12-18T07:26:05;6.72;;;4.20;;
52854;SDS011;38719;51.418;7.286;2022-12-18T07:28:34;5.80;;;3.45;;
52854;SDS011;38719;51.418;7.286;2022-12-18T07:31:02;4.80;;;3.85;;
52854;SDS011;38719;51.418;7.286;2022-12-18T07:33:32;4.65;;;3.97;;
52854;SDS011;38719;51.418;7.286;2022-12-18T07:36:00;5.07;;;3.85;;
52854;SDS011;38719;51.418;7.286;2022-12-18T07:38:29;5.93;;;3.75;;
52854;SDS011;38719;51.418;7.286;2022-12-18T07:41:01;4.45;;;3.58;;
52854;SDS011;38719;51.418;7.286;2022-12-18T07:43:32;4.55;;;3.40;;
52854;SDS011;38719;51.418;7.286;2022-12-18T07:46:00;5.97;;;3.45;;
52854;SDS011;38719;51.418;7.286;2022-12-18T07:48:28;6.18;;;3.97;;
52854;SDS011;38719;51.418;7.286;2022-12-18T07:50:57;5.20;;;3.50;;
52854;SDS011;38719;51.418;7.286;2022-12-18T07:53:25;6.93;;;3.88;;
52854;SDS011;38719;51.418;7.286;2022-12-18T07:55:54;4.60;;;3.70;;
52854;SDS011;38719;51.418;7.286;2022-12-18T07:58:44;7.15;;;3.95;;
52854;SDS011;38719;51.418;7.286;2022-12-18T08:01:14;6.68;;;3.78;;
52854;SDS011;38719;51.418;7.286;2022-12-18T08:03:42;5.20;;;3.50;;
52854;SDS011;38719;51.418;7.286;2022-12-18T08:06:10;6.28;;;4.82;;
52854;SDS011;38719;51.418;7.286;2022-12-18T08:08:37;10.25;;;5.13;;
52854;SDS011;38719;51.418;7.286;2022-12-18T08:11:06;7.90;;;4.68;;
52854;SDS011;38719;51.418;7.286;2022-12-18T08:13:34;4.82;;;4.07;;
52854;SDS011;38719;51.418;7.286;2022-12-18T08:16:04;6.38;;;3.70;;
52854;SDS011;38719;51.418;7.286;2022-12-18T08:18:33;4.65;;;3.92;;
52854;SDS011;38719;51.418;7.286;2022-12-18T08:21:07;4.40;;;3.63;;
52854;SDS011;38719;51.418;7.286;2022-12-18T08:23:35;6.25;;;3.78;;
52854;SDS011;38719;51.418;7.286;2022-12-18T08:26:08;6.82;;;3.63;;
52854;SDS011;38719;51.418;7.286;2022-12-18T08:28:36;6.13;;;3.97;;
52854;SDS011;38719;51.418;7.286;2022-12-18T08:31:05;6.55;;;3.90;;
52854;SDS011;38719;51.418;7.286;2022-12-18T08:33:33;6.32;;;3.53;;
52854;SDS011;38719;51.418;7.286;2022-12-18T08:36:02;5.80;;;3.67;;
52854;SDS011;38719;51.418;7.286;2022-12-18T08:38:31;4.82;;;3.80;;
52854;SDS011;38719;51.418;7.286;2022-12-18T08:40:58;5.90;;;3.35;;
52854;SDS011;38719;51.418;7.286;2022-12-18T08:43:27;5.63;;;3.22;;
52854;SDS011;38719;51.418;7.286;2022-12-18T08:46:13;7.00;;;3.40;;
52854;SDS011;38719;51.418;7.286;2022-12-18T08:48:41;3.28;;;2.97;;
52854;SDS011;38719;51.418;7.286;2022-12-18T08:51:09;6.97;;;3.67;;
52854;SDS011;38719;51.418;7.286;2022-12-18T08:53:37;4.57;;;3.72;;
52854;SDS011;38719;51.418;7.286;2022-12-18T08:56:05;3.95;;;3.58;;
52854;SDS011;38719;51.418;7.286;2022-12-18T08:58:34;7.35;;;4.00;;
52854;SDS011;38719;51.418;7.286;2022-12-18T09:01:02;6.90;;;3.78;;
52854;SDS011;38719;51.418;7.286;2022-12-18T09:03:32;4.72;;;3.40;;
52854;SDS011;38719;51.418;7.286;2022-12-18T09:06:00;54.70;;;5.25;;
52854;SDS011;38719;51.418;7.286;2022-12-18T09:08:28;5.60;;;3.45;;
52854;SDS011;38719;51.418;7.286;2022-12-18T09:10:56;5.32;;;3.83;;
52854;SDS011;38719;51.418;7.286;2022-12-18T09:13:23;4.75;;;3.58;;
52854;SDS011;38719;51.418;7.286;2022-12-18T09:15:51;4.32;;;3.10;;
52854;SDS011;38719;51.418;7.286;2022-12-18T09:18:21;6.50;;;3.72;;
52854;SDS011;38719;51.418;7.286;2022-12-18T09:20:51;9.35;;;3.35;;
52854;SDS011;38719;51.418;7.286;2022-12-18T09:23:19;4.40;;;3.53;;
52854;SDS011;38719;51.418;7.286;2022-12-18T09:25:47;4.20;;;3.35;;
52854;SDS011;38719;51.418;7.286;2022-12-18T09:28:15;5.07;;;3.67;;
52854;SDS011;38719;51.418;7.286;2022-12-18T09:30:45;4.03;;;3.20;;
52854;SDS011;38719;51.418;7.286;2022-12-18T09:33:15;5.28;;;3.35;;
52854;SDS011;38719;51.418;7.286;2022-12-18T09:35:44;6.93;;;4.07;;
52854;SDS011;38719;51.418;7.286;2022-12-18T09:38:15;3.70;;;3.28;;
52854;SDS011;38719;51.418;7.286;2022-12-18T09:40:46;6.45;;;3.55;;
52854;SDS011;38719;51.418;7.286;2022-12-18T09:43:15;5.28;;;3.35;;
52854;SDS011;38719;51.418;7.286;2022-12-18T09:45:46;7.40;;;3.50;;
52854;SDS011;38719;51.418;7.286;2022-12-18T09:48:18;4.47;;;3.13;;
52854;SDS011;38719;51.418;7.286;2022-12-18T09:50:49;4.25;;;3.38;;
52854;SDS011;38719;51.418;7.286;2022-12-18T09:53:21;4.32;;;3.42;;
52854;SDS011;38719;51.418;7.286;2022-12-18T09:55:52;6.32;;;4.13;;
52854;SDS011;38719;51.418;7.286;2022-12-18T09:58:21;6.13;;;3.60;;
52854;SDS011;38719;51.418;7.286;2022-12-18T10:00:53;4.40;;;3.10;;
52854;SDS011;38719;51.418;7.286;2022-12-18T10:03:21;5.57;;;3.65;;
52854;SDS011;38719;51.418;7.286;2022-12-18T10:05:52;4.22;;;3.15;;
52854;SDS011;38719;51.418;7.286;2022-12-18T10:08:33;4.30;;;3.10;;
52854;SDS011;38719;51.418;7.286;2022-12-18T10:11:21;4.13;;;3.08;;
52854;SDS011;38719;51.418;7.286;2022-12-18T10:14:00;5.30;;;2.72;;
52854;SDS011;38719;51.418;7.286;2022-12-18T10:16:35;7.65;;;3.60;;
52854;SDS011;38719;51.418;7.286;2022-12-18T10:19:16;4.15;;;3.17;;
52854;SDS011;38719;51.418;7.286;2022-12-18T10:21:55;4.97;;;3.28;;
52854;SDS011;38719;51.418;7.286;2022-12-18T10:24:32;6.45;;;3.80;;
52854;SDS011;38719;51.418;7.286;2022-12-18T10:27:09;4.22;;;3.15;;
52854;SDS011;38719;51.418;7.286;2022-12-18T10:29:41;5.35;;;2.97;;
52854;SDS011;38719;51.418;7.286;2022-12-18T10:32:12;4.25;;;3.05;;
52854;SDS011;38719;51.418;7.286;2022-12-18T10:34:46;4.28;;;3.20;;
52854;SDS011;38719;51.418;7.286;2022-12-18T10:37:15;7.13;;;3.40;;
52854;SDS011;38719;51.418;7.286;2022-12-18T10:39:47;5.07;;;3.50;;
52854;SDS011;38719;51.418;7.286;2022-12-18T10:42:34;5.05;;;3.10;;
52854;SDS011;38719;51.418;7.286;2022-12-18T10:45:03;4.13;;;3.60;;
52854;SDS011;38719;51.418;7.286;2022-12-18T10:47:41;4.47;;;3.00;;
52854;SDS011;38719;51.418;7.286;2022-12-18T10:50:18;6.38;;;3.97;;
52854;SDS011;38719;51.418;7.286;2022-12-18T10:52:55;4.95;;;3.60;;
52854;SDS011;38719;51.418;7.286;2022-12-18T10:55:24;3.63;;;3.28;;
52854;SDS011;38719;51.418;7.286;2022-12-18T10:58:12;4.97;;;3.25;;
52854;SDS011;38719;51.418;7.286;2022-12-18T11:01:01;7.32;;;4.60;;
52854;SDS011;38719;51.418;7.286;2022-12-18T11:03:32;5.82;;;3.60;;
52854;SDS011;38719;51.418;7.286;2022-12-18T11:06:03;6.53;;;4.20;;
52854;SDS011;38719;51.418;7.286;2022-12-18T11:08:33;5.45;;;3.38;;
52854;SDS011;38719;51.418;7.286;2022-12-18T11:11:02;6.15;;;3.50;;
52854;SDS011;38719;51.418;7.286;2022-12-18T11:13:31;5.13;;;3.60;;
52854;SDS011;38719;51.418;7.286;2022-12-18T11:15:58;6.03;;;4.35;;
52854;SDS011;38719;51.418;7.286;2022-12-18T11:18:27;6.15;;;3.80;;
52854;SDS011;38719;51.418;7.286;2022-12-18T11:20:57;6.25;;;3.67;;
52854;SDS011;38719;51.418;7.286;2022-12-18T11:23:27;4.43;;;3.60;;
52854;SDS011;38719;51.418;7.286;2022-12-18T11:25:56;5.82;;;3.95;;
52854;SDS011;38719;51.418;7.286;2022-12-18T11:28:27;7.00;;;3.83;;
52854;SDS011;38719;51.418;7.286;2022-12-18T11:33:55;6.15;;;3.63;;
52854;SDS011;38719;51.418;7.286;2022-12-18T11:36:47;10.25;;;3.65;;
52854;SDS011;38719;51.418;7.286;2022-12-18T11:39:15;7.38;;;3.78;;
52854;SDS011;38719;51.418;7.286;2022-12-18T11:41:49;6.38;;;4.03;;
52854;SDS011;38719;51.418;7.286;2022-12-18T11:44:42;8.15;;;4.13;;
52854;SDS011;38719;51.418;7.286;2022-12-18T11:47:15;6.18;;;4.13;;
52854;SDS011;38719;51.418;7.286;2022-12-18T11:49:51;6.18;;;4.00;;
52854;SDS011;38719;51.418;7.286;2022-12-18T11:52:23;6.20;;;3.70;;
52854;SDS011;38719;51.418;7.286;2022-12-18T11:54:55;8.15;;;4.03;;
52854;SDS011;38719;51.418;7.286;2022-12-18T11:57:30;7.68;;;4.22;;
52854;SDS011;38719;51.418;7.286;2022-12-18T12:00:09;7.68;;;4.38;;
52854;SDS011;38719;51.418;7.286;2022-12-18T12:02:53;4.93;;;3.42;;
52854;SDS011;38719;51.418;7.286;2022-12-18T12:05:38;6.45;;;4.10;;
52854;SDS011;38719;51.418;7.286;2022-12-18T12:08:17;8.82;;;4.10;;
52854;SDS011;38719;51.418;7.286;2022-12-18T12:10:55;6.32;;;3.65;;
52854;SDS011;38719;51.418;7.286;2022-12-18T12:13:36;4.93;;;3.47;;
52854;SDS011;38719;51.418;7.286;2022-12-18T12:16:13;4.95;;;4.10;;
52854;SDS011;38719;51.418;7.286;2022-12-18T12:18:51;5.72;;;3.72;;
52854;SDS011;38719;51.418;7.286;2022-12-18T12:21:29;4.60;;;3.50;;
52854;SDS011;38719;51.418;7.286;2022-12-18T12:24:10;5.88;;;3.95;;
52854;SDS011;38719;51.418;7.286;2022-12-18T12:26:52;5.75;;;3.70;;
52854;SDS011;38719;51.418;7.286;2022-12-18T12:29:31;5.63;;;3.78;;
52854;SDS011;38719;51.418;7.286;2022-12-18T12:32:17;5.88;;;4.15;;
52854;SDS011;38719;51.418;7.286;2022-12-18T12:34:57;7.00;;;3.60;;
52854;SDS011;38719;51.418;7.286;2022-12-18T12:37:38;6.35;;;3.97;;
52854;SDS011;38719;51.418;7.286;2022-12-18T12:40:17;5.88;;;3.85;;
52854;SDS011;38719;51.418;7.286;2022-12-18T12:43:12;6.32;;;4.20;;
52854;SDS011;38719;51.418;7.286;2022-12-18T12:45:49;6.18;;;4.00;;
52854;SDS011;38719;51.418;7.286;2022-12-18T12:48:23;6.35;;;4.10;;
52854;SDS011;38719;51.418;7.286;2022-12-18T12:51:00;6.75;;;4.22;;
52854;SDS011;38719;51.418;7.286;2022-12-18T12:53:34;5.97;;;4.13;;
52854;SDS011;38719;51.418;7.286;2022-12-18T12:56:06;5.63;;;4.07;;
52854;SDS011;38719;51.418;7.286;2022-12-18T12:58:39;6.75;;;4.75;;
52854;SDS011;38719;51.418;7.286;2022-12-18T13:01:17;6.35;;;4.53;;
52854;SDS011;38719;51.418;7.286;2022-12-18T13:03:55;8.32;;;5.15;;
52854;SDS011;38719;51.418;7.286;2022-12-18T13:06:33;7.35;;;4.60;;
52854;SDS011;38719;51.418;7.286;2022-12-18T13:09:10;7.07;;;4.53;;
52854;SDS011;38719;51.418;7.286;2022-12-18T13:11:38;9.52;;;6.10;;
52854;SDS011;38719;51.418;7.286;2022-12-18T13:14:29;6.53;;;4.75;;
52854;SDS011;38719;51.418;7.286;2022-12-18T13:17:15;6.30;;;4.95;;
52854;SDS011;38719;51.418;7.286;2022-12-18T13:20:03;8.30;;;5.15;;
52854;SDS011;38719;51.418;7.286;2022-12-18T13:22:34;8.80;;;5.32;;
52854;SDS011;38719;51.418;7.286;2022-12-18T13:28:04;10.82;;;6.05;;
52854;SDS011;38719;51.418;7.286;2022-12-18T13:30:47;13.93;;;5.80;;
52854;SDS011;38719;51.418;7.286;2022-12-18T13:36:35;14.52;;;7.53;;
52854;SDS011;38719;51.418;7.286;2022-12-18T13:39:10;10.77;;;6.18;;
52854;SDS011;38719;51.418;7.286;2022-12-18T13:45:34;9.77;;;5.80;;
52854;SDS011;38719;51.418;7.286;2022-12-18T13:48:18;12.50;;;6.93;;
52854;SDS011;38719;51.418;7.286;2022-12-18T13:50:56;18.52;;;6.43;;
52854;SDS011;38719;51.418;7.286;2022-12-18T13:53:29;11.27;;;6.53;;
52854;SDS011;38719;51.418;7.286;2022-12-18T13:56:00;10.95;;;6.28;;
52854;SDS011;38719;51.418;7.286;2022-12-18T13:58:29;11.77;;;6.70;;
52854;SDS011;38719;51.418;7.286;2022-12-18T14:00:56;12.13;;;6.78;;
52854;SDS011;38719;51.418;7.286;2022-12-18T14:03:26;12.40;;;6.47;;
52854;SDS011;38719;51.418;7.286;2022-12-18T14:05:57;16.80;;;7.32;;
52854;SDS011;38719;51.418;7.286;2022-12-18T14:08:32;13.30;;;7.93;;
52854;SDS011;38719;51.418;7.286;2022-12-18T14:11:05;9.80;;;5.93;;
52854;SDS011;38719;51.418;7.286;2022-12-18T14:13:36;12.75;;;7.00;;
52854;SDS011;38719;51.418;7.286;2022-12-18T14:16:11;14.27;;;7.28;;
52854;SDS011;38719;51.418;7.286;2022-12-18T14:18:42;13.30;;;6.75;;
52854;SDS011;38719;51.418;7.286;2022-12-18T14:21:19;13.23;;;6.72;;
52854;SDS011;38719;51.418;7.286;2022-12-18T14:24:03;12.88;;;6.90;;
52854;SDS011;38719;51.418;7.286;2022-12-18T14:26:39;10.65;;;6.85;;
52854;SDS011;38719;51.418;7.286;2022-12-18T14:29:21;13.38;;;6.72;;
52854;SDS011;38719;51.418;7.286;2022-12-18T14:32:07;16.67;;;6.97;;
52854;SDS011;38719;51.418;7.286;2022-12-18T14:34:44;14.20;;;6.63;;
52854;SDS011;38719;51.418;7.286;2022-12-18T14:37:12;10.93;;;6.18;;
52854;SDS011;38719;51.418;7.286;2022-12-18T14:39:52;14.00;;;7.07;;
52854;SDS011;38719;51.418;7.286;2022-12-18T14:42:22;14.25;;;6.93;;
52854;SDS011;38719;51.418;7.286;2022-12-18T14:47:55;13.48;;;7.07;;
52854;SDS011;38719;51.418;7.286;2022-12-18T14:50:22;16.08;;;7.47;;
52854;SDS011;38719;51.418;7.286;2022-12-18T14:52:50;11.98;;;6.65;;
52854;SDS011;38719;51.418;7.286;2022-12-18T14:55:20;13.07;;;7.45;;
52854;SDS011;38719;51.418;7.286;2022-12-18T14:57:49;14.95;;;8.13;;
52854;SDS011;38719;51.418;7.286;2022-12-18T15:00:19;13.23;;;7.18;;
52854;SDS011;38719;51.418;7.286;2022-12-18T15:02:49;17.38;;;7.63;;
52854;SDS011;38719;51.418;7.286;2022-12-18T15:05:21;15.75;;;8.63;;
52854;SDS011;38719;51.418;7.286;2022-12-18T15:07:53;16.15;;;8.35;;
52854;SDS011;38719;51.418;7.286;2022-12-18T15:10:24;13.15;;;7.32;;
52854;SDS011;38719;51.418;7.286;2022-12-18T15:13:06;19.85;;;9.63;;
52854;SDS011;38719;51.418;7.286;2022-12-18T15:15:45;15.25;;;8.25;;
52854;SDS011;38719;51.418;7.286;2022-12-18T15:18:14;14.95;;;8.15;;
52854;SDS011;38719;51.418;7.286;2022-12-18T15:20:44;14.10;;;8.15;;
52854;SDS011;38719;51.418;7.286;2022-12-18T15:23:15;21.77;;;9.00;;
52854;SDS011;38719;51.418;7.286;2022-12-18T15:25:46;15.32;;;8.57;;
52854;SDS011;38719;51.418;7.286;2022-12-18T15:28:19;13.88;;;8.23;;
52854;SDS011;38719;51.418;7.286;2022-12-18T15:31:00;13.70;;;8.02;;